createdAt,value
2022-09-23T00:00:08.716Z,357
2022-09-23T00:01:08.872Z,358
2022-09-23T00:02:08.554Z,358
2022-09-23T00:04:08.177Z,360
2022-09-23T00:05:08.634Z,369
2022-09-23T00:06:07.971Z,357
2022-09-23T00:07:08.070Z,351
2022-09-23T00:09:08.548Z,355
2022-09-23T00:10:08.189Z,363
2022-09-23T00:11:08.349Z,365
2022-09-23T00:13:08.108Z,350
2022-09-23T00:14:08.348Z,362
2022-09-23T00:16:08.346Z,360
2022-09-23T00:17:07.888Z,354
2022-09-23T00:18:08.091Z,351
2022-09-23T00:20:07.946Z,343
2022-09-23T00:21:07.853Z,340
2022-09-23T00:22:08.374Z,348
2022-09-23T00:23:08.414Z,354
2022-09-23T00:24:08.038Z,352
2022-09-23T00:25:08.552Z,347
2022-09-23T00:26:07.589Z,356
2022-09-23T00:27:07.391Z,367
2022-09-23T00:28:08.554Z,372
2022-09-23T00:29:07.660Z,371
2022-09-23T00:30:08.073Z,358
2022-09-23T00:32:08.232Z,356
2022-09-23T00:33:08.365Z,359
2022-09-23T00:35:08.160Z,352
2022-09-23T00:36:08.138Z,368
2022-09-23T00:38:08.053Z,370
2022-09-23T00:40:08.063Z,355
2022-09-23T00:41:07.995Z,348
2022-09-23T00:42:08.173Z,355
2022-09-23T00:43:07.766Z,364
2022-09-23T00:44:07.520Z,363
2022-09-23T00:45:08.391Z,360
2022-09-23T00:47:08.121Z,359
2022-09-23T00:48:07.792Z,356
2022-09-23T00:49:07.551Z,358
2022-09-23T00:50:08.255Z,365
2022-09-23T00:51:07.955Z,351
2022-09-23T00:52:07.744Z,345
2022-09-23T00:53:07.420Z,358
2022-09-23T00:54:07.928Z,352
2022-09-23T00:55:07.657Z,358
2022-09-23T00:56:07.295Z,357
2022-09-23T00:57:07.743Z,352
2022-09-23T00:58:07.653Z,354
2022-09-23T00:59:07.316Z,355
2022-09-23T01:01:07.754Z,360
2022-09-23T01:02:07.487Z,351
2022-09-23T01:03:07.463Z,358
2022-09-23T01:05:07.868Z,363
2022-09-23T01:06:08.003Z,364
2022-09-23T01:07:07.809Z,365
2022-09-23T01:09:07.457Z,371
2022-09-23T01:10:07.520Z,365
2022-09-23T01:11:08.068Z,361
2022-09-23T01:13:07.530Z,360
2022-09-23T01:14:08.183Z,366
2022-09-23T01:16:07.818Z,356
2022-09-23T01:17:07.936Z,365
2022-09-23T01:19:07.482Z,360
2022-09-23T01:20:08.234Z,372
2022-09-23T01:21:08.183Z,360
2022-09-23T01:22:07.803Z,374
2022-09-23T01:23:07.470Z,364
2022-09-23T01:25:07.918Z,360
2022-09-23T01:26:07.736Z,367
2022-09-23T01:27:07.643Z,366
2022-09-23T01:28:07.528Z,370
2022-09-23T01:30:08.074Z,374
2022-09-23T01:31:08.066Z,377
2022-09-23T01:32:08.088Z,374
2022-09-23T01:33:07.840Z,370
2022-09-23T01:34:07.799Z,368
2022-09-23T01:35:07.539Z,377
2022-09-23T01:37:07.842Z,376
2022-09-23T01:38:07.445Z,372
2022-09-23T01:39:08.103Z,371
2022-09-23T01:40:07.982Z,373
2022-09-23T01:42:07.475Z,374
2022-09-23T01:43:08.236Z,383
2022-09-23T01:44:07.890Z,381
2022-09-23T01:45:07.970Z,375
2022-09-23T01:46:07.653Z,371
2022-09-23T01:48:07.698Z,377
2022-09-23T01:49:07.785Z,375
2022-09-23T01:51:08.047Z,372
2022-09-23T01:52:07.715Z,366
2022-09-23T01:53:07.524Z,365
2022-09-23T01:54:07.517Z,370
2022-09-23T01:55:08.406Z,366
2022-09-23T01:56:08.030Z,365
2022-09-23T01:57:07.693Z,363
2022-09-23T01:58:07.466Z,371
2022-09-23T01:59:07.941Z,367
2022-09-23T02:00:08.182Z,364
2022-09-23T02:01:07.506Z,366
2022-09-23T02:02:07.625Z,363
2022-09-23T02:04:07.901Z,369
2022-09-23T02:07:07.377Z,359
2022-09-23T02:08:08.180Z,356
2022-09-23T02:10:08.168Z,355
2022-09-23T02:11:07.974Z,363
2022-09-23T02:14:07.545Z,359
2022-09-23T02:15:07.693Z,364
2022-09-23T02:16:07.989Z,361
2022-09-23T02:17:08.233Z,359
2022-09-23T02:18:07.929Z,361
2022-09-23T02:19:21.792Z,365
2022-09-23T02:20:07.556Z,364
2022-09-23T02:21:07.389Z,371
2022-09-23T02:22:07.774Z,370
2022-09-23T02:24:07.600Z,360
2022-09-23T02:26:07.908Z,369
2022-09-23T02:27:07.499Z,370
2022-09-23T02:28:07.877Z,374
2022-09-23T02:29:07.546Z,360
2022-09-23T02:31:08.284Z,368
2022-09-23T02:33:07.607Z,365
2022-09-23T02:34:07.440Z,377
2022-09-23T02:35:08.196Z,378
2022-09-23T02:36:08.393Z,376
2022-09-23T02:37:07.354Z,364
2022-09-23T02:39:07.760Z,371
2022-09-23T02:40:07.607Z,366
2022-09-23T02:41:07.540Z,358
2022-09-23T02:42:07.961Z,356
2022-09-23T02:43:07.674Z,357
2022-09-23T02:45:07.628Z,363
2022-09-23T02:46:07.787Z,356
2022-09-23T02:47:07.796Z,366
2022-09-23T02:49:08.114Z,361
2022-09-23T02:50:07.851Z,359
2022-09-23T02:51:07.871Z,346
2022-09-23T02:53:07.644Z,354
2022-09-23T02:54:07.492Z,352
2022-09-23T02:55:07.522Z,358
2022-09-23T02:56:08.062Z,364
2022-09-23T02:58:07.890Z,365
2022-09-23T02:59:07.864Z,364
2022-09-23T03:00:08.396Z,360
2022-09-23T03:01:07.866Z,362
2022-09-23T03:02:08.073Z,352
2022-09-23T03:04:07.967Z,355
2022-09-23T03:05:08.246Z,365
2022-09-23T03:07:07.665Z,352
2022-09-23T03:08:07.746Z,357
2022-09-23T03:09:07.793Z,358
2022-09-23T03:10:07.792Z,360
2022-09-23T03:11:07.908Z,357
2022-09-23T03:12:08.092Z,368
2022-09-23T03:14:08.094Z,372
2022-09-23T03:15:08.223Z,380
2022-09-23T03:16:08.077Z,373
2022-09-23T03:17:08.235Z,358
2022-09-23T03:19:08.253Z,364
2022-09-23T03:20:07.985Z,373
2022-09-23T03:21:07.929Z,375
2022-09-23T03:22:07.705Z,372
2022-09-23T03:23:07.784Z,361
2022-09-23T03:25:07.969Z,360
2022-09-23T03:26:08.027Z,365
2022-09-23T03:27:08.322Z,369
2022-09-23T03:29:07.724Z,371
2022-09-23T03:30:08.101Z,369
2022-09-23T03:31:07.995Z,358
2022-09-23T03:32:08.274Z,353
2022-09-23T03:33:08.272Z,355
2022-09-23T03:34:08.136Z,368
2022-09-23T03:35:08.453Z,376
2022-09-23T03:36:07.568Z,382
2022-09-23T03:38:07.804Z,381
2022-09-23T03:40:08.217Z,386
2022-09-23T03:41:08.229Z,389
2022-09-23T03:43:08.101Z,381
2022-09-23T03:44:07.987Z,376
2022-09-23T03:45:08.023Z,368
2022-09-23T03:47:07.794Z,370
2022-09-23T03:48:07.676Z,379
2022-09-23T03:49:07.685Z,386
2022-09-23T03:50:07.997Z,369
2022-09-23T03:51:07.960Z,373
2022-09-23T03:53:07.700Z,383
2022-09-23T03:54:07.842Z,391
2022-09-23T03:55:07.952Z,390
2022-09-23T03:56:08.221Z,378
2022-09-23T03:57:08.231Z,382
2022-09-23T03:58:08.087Z,384
2022-09-23T03:59:07.690Z,374
2022-09-23T04:00:08.391Z,378
2022-09-23T04:01:08.269Z,383
2022-09-23T04:02:08.326Z,390
2022-09-23T04:03:11.563Z,391
2022-09-23T04:05:08.309Z,382
2022-09-23T04:06:08.170Z,378
2022-09-23T04:07:07.724Z,373
2022-09-23T04:08:07.880Z,369
2022-09-23T04:09:08.040Z,375
2022-09-23T04:10:08.246Z,381
2022-09-23T04:11:08.239Z,383
2022-09-23T04:13:07.846Z,390
2022-09-23T04:14:07.781Z,399
2022-09-23T04:15:07.859Z,402
2022-09-23T04:17:08.152Z,392
2022-09-23T04:18:08.350Z,386
2022-09-23T04:19:11.485Z,400
2022-09-23T04:20:08.091Z,399
2022-09-23T04:21:08.185Z,394
2022-09-23T04:23:08.189Z,386
2022-09-23T04:24:08.253Z,381
2022-09-23T04:25:08.883Z,387
2022-09-23T04:27:07.774Z,385
2022-09-23T04:28:07.618Z,391
2022-09-23T04:29:07.807Z,380
2022-09-23T04:30:08.113Z,386
2022-09-23T04:31:08.148Z,401
2022-09-23T04:32:13.397Z,404
2022-09-23T04:34:08.279Z,402
2022-09-23T04:35:08.333Z,399
2022-09-23T04:36:07.928Z,389
2022-09-23T04:38:08.042Z,396
2022-09-23T04:39:08.522Z,388
2022-09-23T04:41:08.112Z,389
2022-09-23T04:42:08.212Z,397
2022-09-23T04:44:08.188Z,396
2022-09-23T04:45:08.407Z,389
2022-09-23T04:46:08.042Z,378
2022-09-23T04:47:08.578Z,379
2022-09-23T04:48:07.573Z,385
2022-09-23T04:49:07.648Z,379
2022-09-23T04:50:07.830Z,386
2022-09-23T04:52:08.511Z,376
2022-09-23T04:53:08.218Z,379
2022-09-23T04:54:08.798Z,383
2022-09-23T04:55:11.208Z,382
2022-09-23T04:56:07.714Z,386
2022-09-23T04:57:07.995Z,384
2022-09-23T04:58:08.056Z,380
2022-09-23T04:59:08.294Z,384
2022-09-23T05:01:08.637Z,383
2022-09-23T05:02:08.309Z,377
2022-09-23T05:03:08.457Z,388
2022-09-23T05:04:07.767Z,385
2022-09-23T05:05:08.279Z,372
2022-09-23T05:07:08.414Z,367
2022-09-23T05:09:08.520Z,369
2022-09-23T05:10:08.191Z,386
2022-09-23T05:12:08.739Z,371
2022-09-23T05:14:08.318Z,374
2022-09-23T05:15:08.863Z,366
2022-09-23T05:16:08.377Z,371
2022-09-23T05:17:07.866Z,373
2022-09-23T05:18:08.368Z,365
2022-09-23T05:20:08.410Z,369
2022-09-23T05:21:08.128Z,372
2022-09-23T05:22:08.547Z,381
2022-09-23T05:23:08.178Z,371
2022-09-23T05:25:07.964Z,370
2022-09-23T05:26:08.093Z,362
2022-09-23T05:27:08.598Z,367
2022-09-23T05:29:08.542Z,370
2022-09-23T05:30:08.106Z,365
2022-09-23T05:31:08.618Z,370
2022-09-23T05:32:08.037Z,375
2022-09-23T05:33:08.369Z,381
2022-09-23T05:34:07.801Z,380
2022-09-23T05:36:08.109Z,377
2022-09-23T05:37:08.370Z,381
2022-09-23T05:38:07.818Z,382
2022-09-23T05:40:08.366Z,392
2022-09-23T05:41:08.481Z,386
2022-09-23T05:43:08.393Z,389
2022-09-23T05:44:07.882Z,388
2022-09-23T05:46:08.607Z,393
2022-09-23T05:48:08.292Z,396
2022-09-23T05:49:07.977Z,384
2022-09-23T05:51:08.315Z,387
2022-09-23T05:53:08.234Z,392
2022-09-23T05:54:08.615Z,383
2022-09-23T05:55:08.386Z,377
2022-09-23T05:57:08.775Z,379
2022-09-23T05:58:08.329Z,382
2022-09-23T05:59:08.994Z,380
2022-09-23T06:00:09.093Z,393
2022-09-23T06:02:08.946Z,389
2022-09-23T06:03:08.594Z,380
2022-09-23T06:04:08.736Z,388
2022-09-23T06:05:08.950Z,377
2022-09-23T06:06:08.203Z,388
2022-09-23T06:08:08.083Z,389
2022-09-23T06:09:08.380Z,387
2022-09-23T06:10:08.417Z,393
2022-09-23T06:11:08.767Z,396
2022-09-23T06:12:08.843Z,394
2022-09-23T06:13:08.600Z,388
2022-09-23T06:14:08.013Z,385
2022-09-23T06:15:08.398Z,390
2022-09-23T06:16:08.483Z,394
2022-09-23T06:17:08.006Z,392
2022-09-23T06:18:08.965Z,393
2022-09-23T06:19:08.460Z,407
2022-09-23T06:20:08.190Z,408
2022-09-23T06:21:08.782Z,393
2022-09-23T06:22:08.409Z,402
2022-09-23T06:23:10.243Z,408
2022-09-23T06:24:08.152Z,413
2022-09-23T06:25:09.248Z,416
2022-09-23T06:26:08.164Z,418
2022-09-23T06:27:08.748Z,417
2022-09-23T06:28:08.312Z,407
2022-09-23T06:29:08.465Z,416
2022-09-23T06:30:08.584Z,427
2022-09-23T06:31:12.872Z,425
2022-09-23T06:33:09.033Z,429
2022-09-23T06:35:17.744Z,423
2022-09-23T06:36:08.562Z,430
2022-09-23T06:38:08.453Z,436
2022-09-23T06:39:08.419Z,437
2022-09-23T06:40:08.720Z,433
2022-09-23T06:41:08.116Z,449
2022-09-23T06:42:08.344Z,440
2022-09-23T06:43:08.421Z,438
2022-09-23T06:44:08.055Z,437
2022-09-23T06:45:08.836Z,424
2022-09-23T06:46:08.870Z,409
2022-09-23T06:47:08.647Z,410
2022-09-23T06:48:08.282Z,418
2022-09-23T06:50:08.402Z,410
2022-09-23T06:51:08.345Z,409
2022-09-23T06:52:08.169Z,421
2022-09-23T06:54:08.743Z,426
2022-09-23T06:55:08.530Z,424
2022-09-23T06:56:08.145Z,433
2022-09-23T06:57:13.622Z,420
2022-09-23T06:59:07.937Z,423
2022-09-23T07:00:09.853Z,417
2022-09-23T07:01:08.284Z,425
2022-09-23T07:02:08.231Z,423
2022-09-23T07:03:08.360Z,418
2022-09-23T07:05:08.439Z,414
2022-09-23T07:06:08.327Z,410
2022-09-23T07:07:09.131Z,412
2022-09-23T07:09:08.894Z,421
2022-09-23T07:10:08.786Z,409
2022-09-23T07:11:08.962Z,407
2022-09-23T07:12:08.893Z,403
2022-09-23T07:13:11.879Z,399
2022-09-23T07:14:08.119Z,397
2022-09-23T07:15:08.876Z,398
2022-09-23T07:16:08.806Z,401
2022-09-23T07:17:08.590Z,389
2022-09-23T07:18:08.732Z,386
2022-09-23T07:19:08.448Z,366
2022-09-23T07:22:08.089Z,369
2022-09-23T07:23:08.626Z,366
2022-09-23T07:24:08.740Z,368
2022-09-23T07:28:08.290Z,357
2022-09-23T07:29:08.141Z,346
2022-09-23T07:31:08.707Z,355
2022-09-23T07:32:13.176Z,353
2022-09-23T07:33:19.076Z,352
2022-09-23T07:34:08.115Z,340
2022-09-23T07:35:08.477Z,345
2022-09-23T07:37:08.485Z,338
2022-09-23T07:38:08.131Z,341
2022-09-23T07:39:08.643Z,340
2022-09-23T07:41:08.444Z,345
2022-09-23T07:43:08.781Z,340
2022-09-23T07:45:09.074Z,343
2022-09-23T07:46:08.425Z,335
2022-09-23T07:47:08.400Z,347
2022-09-23T07:48:08.754Z,354
2022-09-23T07:50:09.090Z,358
2022-09-23T07:51:08.670Z,351
2022-09-23T07:52:08.190Z,345
2022-09-23T07:53:08.673Z,346
2022-09-23T07:54:08.315Z,344
2022-09-23T07:56:08.180Z,340
2022-09-23T07:57:09.726Z,353
2022-09-23T07:58:08.875Z,352
2022-09-23T07:59:09.108Z,353
2022-09-23T08:00:09.155Z,345
2022-09-23T08:01:08.812Z,354
2022-09-23T08:02:08.801Z,350
2022-09-23T08:03:08.603Z,343
2022-09-23T08:04:08.954Z,345
2022-09-23T08:05:09.242Z,339
2022-09-23T08:06:08.195Z,341
2022-09-23T08:07:08.650Z,331
2022-09-23T08:08:08.600Z,352
2022-09-23T08:09:08.370Z,346
2022-09-23T08:11:09.073Z,342
2022-09-23T08:13:08.180Z,344
2022-09-23T08:14:08.406Z,333
2022-09-23T08:15:08.384Z,337
2022-09-23T08:16:08.262Z,341
2022-09-23T08:17:08.535Z,346
2022-09-23T08:18:08.566Z,354
2022-09-23T08:19:08.580Z,355
2022-09-23T08:21:08.466Z,359
2022-09-23T08:23:08.487Z,358
2022-09-23T08:24:08.804Z,369
2022-09-23T08:26:13.994Z,351
2022-09-23T08:27:08.246Z,349
2022-09-23T08:28:08.504Z,343
2022-09-23T08:29:08.170Z,338
2022-09-23T08:30:08.970Z,341
2022-09-23T08:31:08.750Z,343
2022-09-23T08:32:08.793Z,350
2022-09-23T08:33:09.036Z,344
2022-09-23T08:34:07.937Z,335
2022-09-23T08:36:08.408Z,345
2022-09-23T08:38:08.399Z,351
2022-09-23T08:39:08.495Z,341
2022-09-23T08:40:08.083Z,348
2022-09-23T08:41:08.188Z,351
2022-09-23T08:42:08.327Z,349
2022-09-23T08:43:08.642Z,350
2022-09-23T08:44:07.844Z,355
2022-09-23T08:46:08.454Z,357
2022-09-23T08:47:08.452Z,351
2022-09-23T08:49:08.491Z,356
2022-09-23T08:51:08.506Z,352
2022-09-23T08:52:07.938Z,362
2022-09-23T08:53:08.423Z,352
2022-09-23T08:54:08.082Z,350
2022-09-23T08:55:08.578Z,336
2022-09-23T08:56:08.333Z,341
2022-09-23T08:57:07.749Z,344
2022-09-23T08:58:24.522Z,347
2022-09-23T08:59:08.632Z,359
2022-09-23T09:00:09.208Z,353
2022-09-23T09:02:08.334Z,355
2022-09-23T09:03:07.581Z,359
2022-09-23T09:04:12.435Z,352
2022-09-23T09:05:08.446Z,348
2022-09-23T09:06:08.496Z,343
2022-09-23T09:08:08.449Z,341
2022-09-23T09:09:07.911Z,352
2022-09-23T09:11:08.398Z,347
2022-09-23T09:12:12.933Z,344
2022-09-23T09:13:08.501Z,348
2022-09-23T09:14:08.132Z,353
2022-09-23T09:15:09.057Z,355
2022-09-23T09:16:13.034Z,364
2022-09-23T09:17:07.957Z,365
2022-09-23T09:18:08.576Z,356
2022-09-23T09:19:08.025Z,348
2022-09-23T09:20:08.442Z,352
2022-09-23T09:21:08.064Z,346
2022-09-23T09:22:08.681Z,340
2022-09-23T09:23:08.272Z,339
2022-09-23T09:25:07.815Z,337
2022-09-23T09:26:08.084Z,334
2022-09-23T09:27:08.197Z,346
2022-09-23T09:29:23.693Z,345
2022-09-23T09:30:08.194Z,351
2022-09-23T09:31:08.067Z,347
2022-09-23T09:33:08.355Z,346
2022-09-23T09:34:07.904Z,349
2022-09-23T09:35:08.857Z,349
2022-09-23T09:36:09.090Z,339
2022-09-23T09:38:08.379Z,347
2022-09-23T09:39:07.932Z,349
2022-09-23T09:40:08.362Z,343
2022-09-23T09:41:08.043Z,349
2022-09-23T09:44:08.312Z,345
2022-09-23T09:45:08.594Z,349
2022-09-23T09:46:07.929Z,350
2022-09-23T09:47:08.305Z,347
2022-09-23T09:48:08.672Z,350
2022-09-23T09:49:08.297Z,349
2022-09-23T09:51:08.393Z,351
2022-09-23T09:52:08.602Z,346
2022-09-23T09:55:08.650Z,352
2022-09-23T09:56:08.505Z,352
2022-09-23T09:58:08.058Z,359
2022-09-23T09:59:08.579Z,349
2022-09-23T10:00:08.641Z,351
2022-09-23T10:01:08.511Z,348
2022-09-23T10:02:08.412Z,348
2022-09-23T10:04:08.569Z,356
2022-09-23T10:05:08.394Z,343
2022-09-23T10:06:08.041Z,349
2022-09-23T10:07:08.212Z,353
2022-09-23T10:08:08.345Z,342
2022-09-23T10:09:08.656Z,340
2022-09-23T10:10:22.285Z,341
2022-09-23T10:11:08.940Z,358
2022-09-23T10:13:08.353Z,352
2022-09-23T10:14:07.821Z,359
2022-09-23T10:15:08.753Z,353
2022-09-23T10:16:08.717Z,339
2022-09-23T10:17:08.785Z,332
2022-09-23T10:19:08.597Z,344
2022-09-23T10:20:08.425Z,340
2022-09-23T10:21:08.341Z,341
2022-09-23T10:22:08.509Z,338
2022-09-23T10:23:08.154Z,348
2022-09-23T10:24:08.779Z,347
2022-09-23T10:25:08.859Z,350
2022-09-23T10:26:08.203Z,344
2022-09-23T10:27:08.835Z,336
2022-09-23T10:29:08.360Z,344
2022-09-23T10:30:08.511Z,339
2022-09-23T10:31:08.945Z,338
2022-09-23T10:32:08.596Z,350
2022-09-23T10:33:08.841Z,349
2022-09-23T10:34:08.760Z,355
2022-09-23T10:35:08.785Z,353
2022-09-23T10:36:08.926Z,340
2022-09-23T10:38:08.298Z,337
2022-09-23T10:39:08.474Z,348
2022-09-23T10:40:08.794Z,352
2022-09-23T10:42:08.904Z,348
2022-09-23T10:43:08.690Z,345
2022-09-23T10:44:09.166Z,343
2022-09-23T10:45:08.437Z,357
2022-09-23T10:46:08.896Z,347
2022-09-23T10:47:08.429Z,351
2022-09-23T10:48:08.605Z,352
2022-09-23T10:50:09.323Z,354
2022-09-23T10:51:08.618Z,359
2022-09-23T10:52:08.741Z,352
2022-09-23T10:53:09.487Z,354
2022-09-23T10:54:09.303Z,332
2022-09-23T10:56:08.317Z,344
2022-09-23T10:57:08.227Z,341
2022-09-23T10:58:08.181Z,327
2022-09-23T10:59:08.355Z,332
2022-09-23T11:02:08.509Z,343
2022-09-23T11:03:09.018Z,354
2022-09-23T11:04:08.975Z,359
2022-09-23T11:05:08.868Z,348
2022-09-23T11:07:08.872Z,338
2022-09-23T11:09:08.509Z,351
2022-09-23T11:10:18.409Z,352
2022-09-23T11:12:08.716Z,353
2022-09-23T11:13:08.880Z,349
2022-09-23T11:14:09.004Z,344
2022-09-23T11:15:08.866Z,345
2022-09-23T11:16:08.617Z,348
2022-09-23T11:17:09.271Z,340
2022-09-23T11:18:08.466Z,334
2022-09-23T11:19:08.488Z,340
2022-09-23T11:20:08.682Z,334
2022-09-23T11:21:09.264Z,350
2022-09-23T11:22:08.983Z,339
2022-09-23T11:24:09.034Z,343
2022-09-23T11:25:08.808Z,345
2022-09-23T11:26:09.354Z,338
2022-09-23T11:27:08.603Z,340
2022-09-23T11:29:08.592Z,326
2022-09-23T11:30:08.779Z,322
2022-09-23T11:31:09.889Z,332
2022-09-23T11:32:09.091Z,333
2022-09-23T11:34:08.953Z,338
2022-09-23T11:36:08.905Z,342
2022-09-23T11:37:08.854Z,353
2022-09-23T11:38:09.097Z,345
2022-09-23T11:39:08.690Z,349
2022-09-23T11:40:08.811Z,345
2022-09-23T11:41:08.670Z,356
2022-09-23T11:42:09.435Z,351
2022-09-23T11:43:08.979Z,350
2022-09-23T11:44:08.612Z,353
2022-09-23T11:45:08.959Z,349
2022-09-23T11:46:08.370Z,367
2022-09-23T11:47:13.956Z,365
2022-09-23T11:48:08.619Z,355
2022-09-23T11:49:08.577Z,351
2022-09-23T11:50:09.091Z,348
2022-09-23T11:51:08.925Z,338
2022-09-23T11:53:08.420Z,345
2022-09-23T11:54:08.666Z,347
2022-09-23T11:55:16.793Z,352
2022-09-23T11:57:22.831Z,350
2022-09-23T11:58:16.914Z,351
2022-09-23T11:59:08.917Z,352
2022-09-23T12:00:09.084Z,355
2022-09-23T12:01:08.245Z,363
2022-09-23T12:02:18.528Z,350
2022-09-23T12:03:08.999Z,343
2022-09-23T12:05:09.550Z,345
2022-09-23T12:06:08.950Z,329
2022-09-23T12:07:08.631Z,336
2022-09-23T12:08:08.844Z,332
2022-09-23T12:09:08.655Z,333
2022-09-23T12:11:09.065Z,336
2022-09-23T12:12:08.582Z,340
2022-09-23T12:14:08.709Z,339
2022-09-23T12:16:08.447Z,345
2022-09-23T12:17:08.815Z,339
2022-09-23T12:20:08.122Z,338
2022-09-23T12:21:08.094Z,337
2022-09-23T12:22:08.301Z,353
2022-09-23T12:24:08.323Z,356
2022-09-23T12:25:09.135Z,338
2022-09-23T12:27:08.215Z,349
2022-09-23T12:29:08.061Z,337
2022-09-23T12:30:09.059Z,347
2022-09-23T12:32:08.075Z,353
2022-09-23T12:33:08.272Z,349
2022-09-23T12:34:08.273Z,343
2022-09-23T12:35:08.063Z,342
2022-09-23T12:36:08.397Z,337
2022-09-23T12:38:08.195Z,333
2022-09-23T12:39:08.545Z,341
2022-09-23T12:40:08.373Z,336
2022-09-23T12:41:07.905Z,330
2022-09-23T12:42:08.413Z,337
2022-09-23T12:43:07.903Z,326
2022-09-23T12:45:08.034Z,332
2022-09-23T12:46:08.457Z,339
2022-09-23T12:47:08.275Z,346
2022-09-23T12:49:07.693Z,349
2022-09-23T12:50:08.073Z,343
2022-09-23T12:52:08.274Z,329
2022-09-23T12:53:08.083Z,336
2022-09-23T12:54:08.422Z,340
2022-09-23T12:55:08.022Z,335
2022-09-23T12:56:08.209Z,333
2022-09-23T12:57:08.336Z,343
2022-09-23T12:58:08.415Z,338
2022-09-23T12:59:08.419Z,327
2022-09-23T13:00:08.469Z,328
2022-09-23T13:02:08.653Z,334
2022-09-23T13:04:08.458Z,337
2022-09-23T13:06:08.709Z,338
2022-09-23T13:08:08.795Z,342
2022-09-23T13:10:08.434Z,333
2022-09-23T13:12:08.376Z,315
2022-09-23T13:13:08.116Z,338
2022-09-23T13:14:08.627Z,343
2022-09-23T13:15:08.156Z,344
2022-09-23T13:16:08.207Z,356
2022-09-23T13:18:07.936Z,353
2022-09-23T13:20:08.383Z,344
2022-09-23T13:21:08.019Z,347
2022-09-23T13:22:08.814Z,351
2022-09-23T13:23:08.322Z,342
2022-09-23T13:24:08.089Z,344
2022-09-23T13:25:08.463Z,351
2022-09-23T13:26:07.993Z,360
2022-09-23T13:27:08.305Z,349
2022-09-23T13:28:07.809Z,341
2022-09-23T13:29:08.371Z,351
2022-09-23T13:30:08.173Z,350
2022-09-23T13:31:08.150Z,347
2022-09-23T13:32:08.058Z,348
2022-09-23T13:33:08.346Z,343
2022-09-23T13:34:07.890Z,339
2022-09-23T13:35:08.452Z,337
2022-09-23T13:36:08.203Z,340
2022-09-23T13:37:08.629Z,335
2022-09-23T13:38:08.245Z,344
2022-09-23T13:39:08.381Z,354
2022-09-23T13:40:08.132Z,347
2022-09-23T13:41:07.477Z,343
2022-09-23T13:42:10.619Z,336
2022-09-23T13:43:08.190Z,320
2022-09-23T13:44:08.020Z,332
2022-09-23T13:45:08.810Z,340
2022-09-23T13:46:08.396Z,353
2022-09-23T13:47:08.165Z,345
2022-09-23T13:48:08.588Z,341
2022-09-23T13:49:07.889Z,337
2022-09-23T13:50:08.549Z,345
2022-09-23T13:51:08.298Z,346
2022-09-23T13:53:08.675Z,343
2022-09-23T13:55:07.833Z,344
2022-09-23T13:56:08.286Z,344
2022-09-23T13:57:08.447Z,346
2022-09-23T13:59:08.354Z,353
2022-09-23T14:00:09.069Z,348
2022-09-23T14:01:07.878Z,351
2022-09-23T14:02:13.099Z,350
2022-09-23T14:03:07.866Z,355
2022-09-23T14:04:08.370Z,351
2022-09-23T14:05:08.658Z,346
2022-09-23T14:06:08.318Z,341
2022-09-23T14:07:07.587Z,348
2022-09-23T14:08:08.252Z,353
2022-09-23T14:09:08.986Z,338
2022-09-23T14:10:08.947Z,334
2022-09-23T14:12:14.202Z,335
2022-09-23T14:13:08.640Z,341
2022-09-23T14:14:08.134Z,349
2022-09-23T14:15:08.826Z,350
2022-09-23T14:16:08.857Z,346
2022-09-23T14:17:08.187Z,332
2022-09-23T14:18:08.826Z,334
2022-09-23T14:20:08.653Z,339
2022-09-23T14:21:07.939Z,341
2022-09-23T14:22:12.212Z,347
2022-09-23T14:23:08.285Z,365
2022-09-23T14:24:08.568Z,354
2022-09-23T14:25:08.211Z,340
2022-09-23T14:26:08.697Z,341
2022-09-23T14:28:21.812Z,330
2022-09-23T14:29:08.156Z,337
2022-09-23T14:32:08.849Z,334
2022-09-23T14:33:08.749Z,336
2022-09-23T14:35:07.876Z,345
2022-09-23T14:36:27.539Z,350
2022-09-23T14:37:07.785Z,348
2022-09-23T14:38:08.124Z,348
2022-09-23T14:39:08.663Z,342
2022-09-23T14:41:07.955Z,338
2022-09-23T14:42:08.030Z,342
2022-09-23T14:43:08.398Z,329
2022-09-23T14:45:08.728Z,341
2022-09-23T14:46:08.249Z,340
2022-09-23T14:47:12.197Z,331
2022-09-23T14:48:08.277Z,332
2022-09-23T14:49:08.600Z,334
2022-09-23T14:50:08.179Z,345
2022-09-23T14:51:10.945Z,347
2022-09-23T14:52:08.323Z,349
2022-09-23T14:53:08.670Z,340
2022-09-23T14:55:08.425Z,343
2022-09-23T14:57:08.325Z,339
2022-09-23T14:58:07.909Z,343
2022-09-23T15:00:08.839Z,346
2022-09-23T15:02:08.125Z,348
2022-09-23T15:04:07.855Z,327
2022-09-23T15:06:08.884Z,333
2022-09-23T15:07:08.365Z,340
2022-09-23T15:08:07.996Z,340
2022-09-23T15:09:08.514Z,334
2022-09-23T15:11:08.557Z,341
2022-09-23T15:12:07.826Z,339
2022-09-23T15:13:07.886Z,329
2022-09-23T15:14:36.178Z,334
2022-09-23T15:15:08.359Z,349
2022-09-23T15:16:08.198Z,351
